Latest Weather Observations for Middle Percy Island

IDQ60801

Issued at 3:02 pm EST Thursday 28 January 2021 (issued every 10 minutes, with the page automatically refreshed every 10 minutes)

About weather observations | Map of weather stations | Latest weather observations for QLD | Other Formats
Station Details ID: 200001 Name: MIDDLE PERCY ISLAND Lat: -21.66 Lon: 150.27 Height: 208.7 m
Data from the previous 72 hours. | See also: Recent months at Middle Percy Island
Date/Time
EST
Temp
°C
App
Temp
°C
Dew
Point
°C
Rel
Hum
%
Delta-T
°C
Wind Press
QNH
hPa
Press
MSL
hPa
Rain since
9am
mm
Dir  Spd
km/h
Gust
km/h
Spd
kts
Gust
kts
28/03:00pm 24.1 20.2 19.6 76 2.9 ESE 39 57 21 31 1007.6 1006.3 0.4
28/02:30pm 27.4 26.5 22.1 73 3.6 SE 30 43 16 23 1007.7 1006.4 0.0
28/02:00pm 27.4 26.6 21.7 71 3.8 SE 28 43 15 23 1008.0 1006.7 0.0
28/01:30pm 27.6 27.7 22.5 74 3.5 SE 26 37 14 20 1008.3 1007.0 0.0
28/01:00pm 26.6 24.6 21.1 72 3.7 SE 33 43 18 23 1008.6 1007.3 0.0
28/12:30pm 27.4 26.3 22.4 74 3.4 SE 32 43 17 23 1008.7 1007.4 0.0
28/12:00pm 27.9 27.4 22.8 74 3.5 SE 30 46 16 25 1009.0 1007.7 0.0
28/11:30am 26.8 25.7 21.8 74 3.4 SE 30 41 16 22 1009.3 1008.0 0.0
28/11:00am 27.9 27.6 22.6 73 3.6 SE 28 41 15 22 1009.4 1008.1 0.0
28/10:30am 27.2 26.1 22.4 75 3.3 SE 32 44 17 24 1009.4 1008.1 0.0
28/10:00am 26.9 26.8 22.3 76 3.1 SE 26 39 14 21 1009.3 1008.0 0.0
28/09:30am 26.8 26.7 22.2 76 3.1 SE 26 35 14 19 1009.4 1008.1 0.0
28/09:00am 23.7 22.0 19.8 79 2.5 SE 28 44 15 24 1009.5 1008.2 0.0
28/08:30am 26.3 27.4 22.4 79 2.6 SE 20 32 11 17 1009.3 1008.0 0.0
28/08:00am 26.0 25.6 21.7 77 2.9 SE 26 37 14 20 1009.0 1007.7 0.0
28/07:30am 25.9 25.7 22.0 79 2.6 SE 26 35 14 19 1008.8 1007.5 0.0
28/07:00am 25.0 24.5 21.5 81 2.3 SE 26 35 14 19 1008.7 1007.4 0.0
28/06:30am 25.1 25.2 21.8 82 2.2 SE 24 35 13 19 1008.5 1007.2 0.0
28/06:00am 24.6 24.5 21.5 83 2.1 SE 24 33 13 18 1008.2 1006.9 0.0
28/05:30am 24.6 24.4 21.3 82 2.2 ESE 24 35 13 19 1007.8 1006.5 0.0
28/05:00am 24.4 25.1 21.5 84 1.9 SE 20 30 11 16 1007.6 1006.3 0.0
28/04:30am 24.7 25.3 21.4 82 2.2 ESE 20 30 11 16 1007.5 1006.2 0.0
28/04:00am 24.8 24.8 21.7 83 2.1 SE 24 35 13 19 1007.4 1006.1 0.0
28/03:30am 24.6 25.4 21.3 82 2.2 ESE 19 30 10 16 1007.3 1006.0 0.0
28/03:00am 24.8 24.7 21.5 82 2.2 SE 24 32 13 17 1007.3 1006.0 0.0
28/02:30am 24.7 25.5 21.4 82 2.2 ESE 19 26 10 14 1007.4 1006.1 0.0
28/02:00am 24.8 25.6 21.7 83 2.1 ESE 20 32 11 17 1007.3 1006.0 0.0
28/01:30am 24.8 27.2 21.5 82 2.2 ESE 11 19 6 10 1007.6 1006.3 0.0
28/01:00am 24.8 25.6 21.3 81 2.3 SE 19 30 10 16 1007.9 1006.6 0.0
28/12:30am 24.9 25.2 21.6 82 2.2 ESE 22 33 12 18 1008.3 1007.0 0.0
28/12:00am 24.9 25.5 21.4 81 2.3 ESE 20 28 11 15 1008.5 1007.2 0.0
 
Date/Time
EST
Temp
°C
App
Temp
°C
Dew
Point
°C
Rel
Hum
%
Delta-T
°C
Wind Press
QNH
hPa
Press
MSL
hPa
Rain since
9am
mm
Dir  Spd
km/h
Gust
km/h
Spd
kts
Gust
kts
27/11:30pm 24.8 26.8 21.5 82 2.2 ESE 13 24 7 13 1008.8 1007.5 0.0
27/11:00pm 24.9 26.3 21.8 83 2.1 ESE 17 33 9 18 1008.9 1007.6 0.0
27/10:30pm 24.9 27.2 22.0 84 1.9 ESE 13 20 7 11 1008.9 1007.6 0.0
27/10:00pm 24.8 26.9 21.7 83 2.1 ESE 13 24 7 13 1008.9 1007.6 0.0
27/09:30pm 24.7 27.1 21.6 83 2.1 ESE 11 20 6 11 1008.8 1007.5 0.0
27/09:00pm 24.8 27.3 21.7 83 2.1 E 11 22 6 12 1008.6 1007.3 0.0
27/08:30pm 24.8 26.3 21.3 81 2.3 E 15 30 8 16 1008.7 1007.4 0.0
27/08:00pm 24.9 26.5 21.4 81 2.3 ESE 15 32 8 17 1008.5 1007.2 0.0
27/07:30pm 25.0 26.1 21.3 80 2.5 ESE 17 28 9 15 1008.3 1007.0 0.0
27/07:00pm 25.1 25.3 21.4 80 2.5 ESE 22 35 12 19 1008.3 1007.0 0.0
27/06:30pm 25.4 24.8 21.3 78 2.7 ESE 26 35 14 19 1008.1 1006.8 0.0
27/06:00pm 25.9 25.3 21.3 76 3.1 ESE 26 35 14 19 1007.9 1006.6 0.0
27/05:30pm 26.3 25.7 21.3 74 3.3 SE 26 37 14 20 1007.5 1006.2 0.0
27/05:00pm 26.4 25.4 21.2 73 3.5 SE 28 35 15 19 1007.2 1005.9 0.0
27/04:30pm 26.9 26.4 21.4 72 3.7 SE 26 33 14 18 1007.0 1005.7 0.0
27/04:00pm 27.2 27.1 21.5 71 3.8 SE 24 32 13 17 1007.0 1005.7 0.0
27/03:30pm 27.6 27.7 21.9 71 3.9 SE 24 33 13 18 1007.0 1005.7 0.0
27/03:00pm 27.9 28.4 21.9 70 4.1 SE 22 32 12 17 1007.1 1005.8 0.0
27/02:30pm 28.4 29.7 22.4 70 4.1 SE 19 28 10 15 1007.3 1006.0 0.0
27/02:00pm 28.1 29.1 22.1 70 4.1 SE 20 33 11 18 1007.3 1006.0 0.0
27/01:30pm 28.7 30.1 22.9 71 4.0 SE 20 33 11 18 1007.4 1006.1 0.0
27/01:00pm 27.6 28.5 21.9 71 3.9 SSE 20 28 11 15 1007.6 1006.3 0.0
27/12:30pm 28.0 29.1 22.0 70 4.1 SSE 19 26 10 14 1007.9 1006.6 0.0
27/12:00pm 28.5 30.0 22.7 71 4.0 SE 19 24 10 13 1008.2 1006.9 0.0
27/11:30am 28.3 30.1 22.5 71 4.0 SE 17 24 9 13 1008.6 1007.3 0.0
27/11:00am 28.1 29.4 22.3 70 4.0 SE 19 22 10 12 1008.8 1007.5 0.0
27/10:30am 28.0 30.1 22.5 72 3.8 ESE 15 20 8 11 1008.9 1007.6 0.0
27/10:00am 27.7 29.8 22.4 73 3.6 SE 15 24 8 13 1008.9 1007.6 0.0
27/09:30am 27.4 29.6 22.6 75 3.3 SE 15 22 8 12 1008.8 1007.5 0.0
27/09:00am 27.1 29.2 22.5 76 3.1 SE 15 22 8 12 1008.9 1007.6 0.0
27/08:30am 26.7 28.7 22.3 77 3.0 SE 15 24 8 13 1008.8 1007.5 0.0
27/08:00am 25.9 27.7 21.8 78 2.8 ESE 15 20 8 11 1008.9 1007.6 0.0
27/07:30am 26.2 28.2 22.3 79 2.6 ESE 15 24 8 13 1008.7 1007.4 0.0
27/07:00am 25.7 27.8 22.4 82 2.2 ESE 15 20 8 11 1008.4 1007.1 0.0
27/06:30am 24.3 26.8 21.8 86 1.7 SE 11 17 6 9 1008.0 1006.7 0.0
27/06:00am 24.2 26.7 21.7 86 1.7 ESE 11 15 6 8 1007.7 1006.4 0.0
27/05:30am 23.8 26.5 21.3 86 1.7 ESE 9 13 5 7 1007.2 1005.9 0.0
27/05:00am 23.9 26.6 21.4 86 1.7 E 9 13 5 7 1006.9 1005.6 0.0
27/04:30am 24.1 26.9 21.6 86 1.7 ESE 9 13 5 7 1006.7 1005.4 0.0
27/04:00am 24.0 27.0 21.3 85 1.8 ESE 7 13 4 7 1006.5 1005.1 0.0
27/03:30am 24.1 26.5 21.6 86 1.7 ESE 11 17 6 9 1006.5 1005.1 0.0
27/03:00am 24.2 27.0 21.5 85 1.8 E 9 13 5 7 1006.6 1005.3 0.0
27/02:30am 24.2 27.0 21.5 85 1.8 E 9 15 5 8 1006.8 1005.5 0.0
27/02:00am 24.3 27.5 21.6 85 1.8 E 7 13 4 7 1007.0 1005.7 0.0
27/01:30am 24.2 27.4 21.7 86 1.7 E 7 15 4 8 1007.1 1005.8 0.0
27/01:00am 24.4 26.9 21.7 85 1.8 E 11 19 6 10 1007.4 1006.1 0.0
27/12:30am 24.5 27.4 21.8 85 1.8 E 9 17 5 9 1007.7 1006.4 0.0
27/12:00am 24.5 26.9 21.6 84 1.9 ENE 11 20 6 11 1007.9 1006.6 0.0
 
Date/Time
EST
Temp
°C
App
Temp
°C
Dew
Point
°C
Rel
Hum
%
Delta-T
°C
Wind Press
QNH
hPa
Press
MSL
hPa
Rain since
9am
mm
Dir  Spd
km/h
Gust
km/h
Spd
kts
Gust
kts
26/11:30pm 24.6 26.3 21.7 84 1.9 ENE 15 20 8 11 1008.2 1006.9 0.0
26/11:00pm 24.7 26.4 21.6 83 2.1 ENE 15 22 8 12 1008.3 1007.0 0.0
26/10:30pm 24.8 25.9 21.9 84 1.9 ENE 19 28 10 15 1008.5 1007.2 0.0
26/10:00pm 24.8 26.5 21.7 83 2.1 ENE 15 22 8 12 1008.6 1007.3 0.0
26/09:30pm 24.8 27.3 21.7 83 2.1 E 11 20 6 11 1008.4 1007.1 0.0
26/09:00pm 24.8 26.6 21.9 84 1.9 E 15 30 8 16 1008.0 1006.7 0.0
26/08:30pm 24.8 26.9 21.7 83 2.1 E 13 24 7 13 1007.7 1006.4 0.0
26/08:00pm 24.8 27.0 21.9 84 1.9 E 13 26 7 14 1007.4 1006.1 0.0
26/07:30pm 24.9 26.7 21.8 83 2.1 ENE 15 22 8 12 1007.3 1006.0 0.0
26/07:00pm 25.0 26.7 21.7 82 2.2 ENE 15 22 8 12 1007.0 1005.7 0.0
26/06:30pm 25.3 27.5 21.8 81 2.3 ENE 13 22 7 12 1006.7 1005.4 0.0
26/06:00pm 26.1 28.7 22.0 78 2.8 ESE 11 19 6 10 1006.4 1005.0 0.0
26/05:30pm 26.6 28.3 22.4 78 2.9 SE 17 26 9 14 1006.1 1004.7 0.0
26/05:00pm 26.7 28.5 22.5 78 2.9 SE 17 24 9 13 1005.9 1004.5 0.0
26/04:30pm 26.8 28.0 22.2 76 3.1 ESE 19 26 10 14 1005.9 1004.5 0.0
26/04:00pm 26.4 27.5 22.0 77 3.0 SE 19 28 10 15 1005.9 1004.5 0.0
26/03:30pm 26.5 27.2 22.3 78 2.8 ESE 22 30 12 16 1006.3 1004.9 0.0
26/03:00pm 27.1 27.4 22.3 75 3.3 SE 24 33 13 18 1006.4 1005.0 0.0
26/02:30pm 27.8 28.6 22.5 73 3.6 SE 22 30 12 16 1006.5 1005.1 0.0
26/02:00pm 27.7 29.1 22.6 74 3.5 SE 19 26 10 14 1006.7 1005.4 0.0
26/01:30pm 28.1 29.9 23.2 74 3.4 SE 19 28 10 15 1007.0 1005.7 0.0
26/01:00pm 27.8 29.6 23.2 76 3.2 ESE 19 24 10 13 1007.3 1006.0 0.0
26/12:30pm 28.2 29.9 23.1 74 3.5 SE 19 26 10 14 1007.7 1006.4 0.0
26/12:00pm 27.1 28.1 22.1 74 3.4 SE 20 28 11 15 1007.9 1006.6 0.0
26/11:30am 28.2 29.9 23.1 74 3.5 SE 19 24 10 13 1008.2 1006.9 0.0
26/11:00am 27.7 29.1 22.6 74 3.5 SE 19 26 10 14 1008.6 1007.3 0.0
26/10:30am 27.4 28.5 22.4 74 3.4 SE 20 28 11 15 1008.8 1007.5 0.0
26/10:00am 27.1 28.1 22.1 74 3.4 SE 20 28 11 15 1008.9 1007.6 0.0
26/09:30am 26.9 28.4 22.7 78 2.9 ESE 19 30 10 16 1008.8 1007.5 0.0
26/09:00am 26.0 27.3 22.3 80 2.5 SE 19 24 10 13 1008.9 1007.6 0.0
26/08:30am 26.8 28.7 22.8 79 2.7 SE 17 26 9 14 1008.7 1007.4 0.0
26/08:00am 26.1 27.5 22.6 81 2.4 SE 19 30 10 16 1008.7 1007.4 0.0
26/07:30am 25.9 27.7 22.6 82 2.2 ESE 17 26 9 14 1008.4 1007.1 0.0
26/07:00am 25.5 27.7 22.6 84 2.0 ESE 15 26 8 14 1008.3 1007.0 0.0
26/06:30am 24.5 26.5 22.2 87 1.5 ESE 15 26 8 14 1008.1 1006.8 0.0
26/06:00am 24.0 26.0 22.3 90 1.1 SE 15 22 8 12 1007.6 1006.3 0.0
26/05:30am 23.6 26.1 21.7 89 1.3 SE 11 15 6 8 1007.4 1006.1 0.0
26/05:00am 24.0 26.2 21.9 88 1.4 SE 13 19 7 10 1007.2 1005.9 0.0
26/04:30am 23.8 26.2 21.5 87 1.5 ESE 11 17 6 9 1007.1 1005.8 0.0
26/04:00am 24.0 26.5 21.7 87 1.5 ESE 11 19 6 10 1007.0 1005.7 0.0
26/03:30am 23.9 27.0 21.4 86 1.7 ESE 7 17 4 9 1007.1 1005.8 0.0
26/03:00am 24.1 26.4 21.4 85 1.8 E 11 17 6 9 1007.3 1006.0 0.0
26/02:30am 24.1 27.3 21.6 86 1.7 ENE 7 13 4 7 1007.5 1006.2 0.0
26/02:00am 24.2 26.3 21.7 86 1.7 ESE 13 22 7 12 1007.9 1006.6 0.0
26/01:30am 24.0 26.8 21.5 86 1.7 ESE 9 17 5 9 1008.2 1006.9 0.0
26/01:00am 24.1 26.5 21.6 86 1.7 E 11 17 6 9 1008.2 1006.9 0.0
26/12:30am 24.2 26.7 21.7 86 1.7 ENE 11 17 6 9 1008.7 1007.4 0.0
26/12:00am 24.3 26.8 21.8 86 1.7 ENE 11 22 6 12 1009.1 1007.8 0.0
 
Date/Time
EST
Temp
°C
App
Temp
°C
Dew
Point
°C
Rel
Hum
%
Delta-T
°C
Wind Press
QNH
hPa
Press
MSL
hPa
Rain since
9am
mm
Dir  Spd
km/h
Gust
km/h
Spd
kts
Gust
kts
25/11:30pm 24.6 27.9 21.9 85 1.8 E 7 19 4 10 1009.3 1008.0 0.0
25/11:00pm 24.6 27.1 21.7 84 1.9 E 11 17 6 9 1009.5 1008.2 0.0
25/10:30pm 24.6 26.5 21.3 82 2.2 ESE 13 19 7 10 1009.5 1008.2 0.0
25/10:00pm 24.6 26.7 21.7 84 1.9 ESE 13 22 7 12 1009.5 1008.2 0.0
25/09:30pm 24.6 25.3 21.5 83 2.1 ESE 20 35 11 19 1009.4 1008.1 0.0
25/09:00pm 24.7 25.4 21.6 83 2.1 ESE 20 32 11 17 1009.2 1007.9 0.0
25/08:30pm 24.7 25.6 21.6 83 2.1 ESE 19 30 10 16 1009.0 1007.7 0.0
25/08:00pm 24.7 24.4 21.8 84 1.9 ESE 26 37 14 20 1008.8 1007.5 0.0
25/07:30pm 24.6 24.1 21.5 83 2.1 ESE 26 37 14 20 1008.6 1007.3 0.0
25/07:00pm 24.5 23.6 21.4 83 2.1 ESE 28 39 15 21 1008.4 1007.1 0.0
25/06:30pm 24.6 23.5 21.1 81 2.3 ESE 28 35 15 19 1008.4 1007.1 0.0
25/06:00pm 25.1 24.3 21.6 81 2.3 ESE 28 39 15 21 1008.0 1006.7 0.0
25/05:30pm 25.7 25.3 21.6 78 2.7 ESE 26 35 14 19 1007.9 1006.6 0.0
25/05:00pm 26.1 25.9 22.0 78 2.8 ESE 26 35 14 19 1007.7 1006.4 0.0
25/04:30pm 26.3 26.4 21.9 77 3.0 SE 24 33 13 18 1007.8 1006.5 0.0
25/04:00pm 26.0 25.5 21.4 76 3.1 SE 26 33 14 18 1007.8 1006.5 0.0
25/03:30pm 26.9 27.4 21.9 74 3.4 SE 22 28 12 15 1007.9 1006.6 0.0

Other formats

Comma delimited format used in spreadsheet applications
http://www.bom.gov.au/fwo/IDQ60801/IDQ60801.94372.axf

JavaScript Object Notation format (JSON) in row-major order
http://www.bom.gov.au/fwo/IDQ60801/IDQ60801.94372.json

Data quality

Most of these data are generated automatically and are frequently updated. Quality checks on data are not normally performed. It is possible for incorrect values to appear. Refer to information at About Latest Weather Observations and please check the disclaimer before using these data.